createdAt,value
2022-09-12T00:00:41.374Z,68.01
2022-09-12T00:03:07.840Z,67.37
2022-09-12T00:05:34.344Z,67.69
2022-09-12T00:08:01.109Z,67.74
2022-09-12T00:10:27.497Z,67.76
2022-09-12T00:12:53.901Z,67.44
2022-09-12T00:15:20.379Z,67.99
2022-09-12T00:17:46.809Z,68.29
2022-09-12T00:20:13.232Z,68.22
2022-09-12T00:22:39.922Z,68.09
2022-09-12T00:25:06.692Z,68.39
2022-09-12T00:27:33.130Z,68.61
2022-09-12T00:29:59.548Z,68.38
2022-09-12T00:32:25.996Z,68.40
2022-09-12T00:34:52.416Z,68.60
2022-09-12T00:37:18.901Z,68.70
2022-09-12T00:39:45.512Z,68.50
2022-09-12T00:42:12.157Z,68.19
2022-09-12T00:44:38.574Z,68.10
2022-09-12T00:47:28.358Z,67.59
2022-09-12T00:50:03.942Z,67.92
2022-09-12T00:52:35.936Z,67.61
2022-09-12T00:55:07.710Z,67.86
2022-09-12T00:57:54.448Z,67.98
2022-09-12T01:00:22.900Z,68.07
2022-09-12T01:02:53.462Z,67.93
2022-09-12T01:05:20.362Z,67.99
2022-09-12T01:07:50.126Z,68.02
2022-09-12T01:10:17.330Z,68.18
2022-09-12T01:12:44.219Z,68.61
2022-09-12T01:15:10.699Z,68.13
2022-09-12T01:17:43.144Z,68.34
2022-09-12T01:20:28.353Z,68.42
2022-09-12T01:22:54.770Z,68.44
2022-09-12T01:25:33.945Z,68.44
2022-09-12T01:28:12.658Z,69.15
2022-09-12T01:30:39.064Z,69.31
2022-09-12T01:33:26.366Z,69.29
2022-09-12T01:35:58.792Z,69.35
2022-09-12T01:38:36.229Z,69.21
2022-09-12T01:41:18.679Z,69.15
2022-09-12T01:43:51.623Z,68.97
2022-09-12T01:46:18.219Z,68.93
2022-09-12T01:48:47.902Z,68.70
2022-09-12T01:51:21.502Z,68.68
2022-09-12T01:53:53.374Z,68.86
2022-09-12T01:56:26.476Z,68.87
2022-09-12T01:59:08.927Z,69.29
2022-09-12T02:01:54.947Z,69.56
2022-09-12T02:04:33.511Z,69.91
2022-09-12T02:07:11.127Z,69.86
2022-09-12T02:09:46.884Z,70.26
2022-09-12T02:12:15.322Z,69.79
2022-09-12T02:14:45.165Z,69.49
2022-09-12T02:17:13.576Z,69.50
2022-09-12T02:19:43.454Z,69.32
2022-09-12T02:22:12.783Z,69.71
2022-09-12T02:24:42.250Z,69.33
2022-09-12T02:27:15.370Z,69.47
2022-09-12T02:29:43.175Z,69.86
2022-09-12T02:32:12.400Z,69.80
2022-09-12T02:34:44.679Z,69.54
2022-09-12T02:37:21.036Z,69.42
2022-09-12T02:39:47.547Z,69.19
2022-09-12T02:42:14.013Z,69.32
2022-09-12T02:44:40.922Z,68.72
2022-09-12T02:47:30.632Z,68.93
2022-09-12T02:49:58.207Z,68.53
2022-09-12T02:52:25.457Z,68.84
2022-09-12T02:54:51.975Z,68.90
2022-09-12T02:57:22.793Z,68.60
2022-09-12T02:59:50.737Z,68.40
2022-09-12T03:02:42.720Z,68.75
2022-09-12T03:05:24.844Z,68.87
2022-09-12T03:08:06.578Z,69.28
2022-09-12T03:10:40.866Z,68.92
2022-09-12T03:13:26.464Z,69.17
2022-09-12T03:16:05.169Z,69.32
2022-09-12T03:18:40.533Z,69.26
2022-09-12T03:21:13.880Z,69.09
2022-09-12T03:23:46.739Z,69.00
2022-09-12T03:26:16.276Z,68.97
2022-09-12T03:28:44.093Z,68.92
2022-09-12T03:31:14.909Z,69.37
2022-09-12T03:33:41.349Z,69.60
2022-09-12T03:36:14.705Z,69.08
2022-09-12T03:38:41.142Z,68.89
2022-09-12T03:41:07.566Z,69.00
2022-09-12T03:43:34.023Z,68.95
2022-09-12T03:46:00.521Z,68.74
2022-09-12T03:48:27.013Z,68.92
2022-09-12T03:50:53.549Z,68.78
2022-09-12T03:53:19.945Z,69.07
2022-09-12T03:55:46.385Z,69.23
2022-09-12T03:58:12.963Z,68.78
2022-09-12T04:00:39.666Z,68.97
2022-09-12T04:03:06.079Z,69.05
2022-09-12T04:05:32.507Z,68.97
2022-09-12T04:07:58.884Z,69.06
2022-09-12T04:10:25.296Z,68.64
2022-09-12T04:12:51.770Z,68.70
2022-09-12T04:15:18.343Z,68.90
2022-09-12T04:17:44.811Z,69.02
2022-09-12T04:20:11.298Z,69.39
2022-09-12T04:22:37.824Z,69.57
2022-09-12T04:25:04.428Z,69.64
2022-09-12T04:27:30.939Z,69.88
2022-09-12T04:29:57.901Z,69.87
2022-09-12T04:32:24.331Z,69.70
2022-09-12T04:34:52.797Z,69.40
2022-09-12T04:37:19.340Z,70.01
2022-09-12T04:39:45.899Z,69.80
2022-09-12T04:42:12.383Z,69.84
2022-09-12T04:44:38.884Z,69.89
2022-09-12T04:47:05.427Z,70.12
2022-09-12T04:49:31.948Z,70.28
2022-09-12T04:51:58.549Z,70.48
2022-09-12T04:54:25.328Z,70.64
2022-09-12T04:56:52.620Z,71.08
2022-09-12T04:59:19.936Z,71.22
2022-09-12T05:01:46.541Z,71.09
2022-09-12T05:04:13.449Z,71.28
2022-09-12T05:06:40.828Z,71.11
2022-09-12T05:09:08.240Z,71.58
2022-09-12T05:12:02.783Z,71.22
2022-09-12T05:14:22.713Z,71.34
2022-09-12T05:16:49.890Z,71.07
2022-09-12T05:19:17.169Z,70.96
2022-09-12T05:21:43.590Z,70.57
2022-09-12T05:24:10.514Z,70.93
2022-09-12T05:26:36.923Z,70.72
2022-09-12T05:29:04.348Z,70.55
2022-09-12T05:31:30.726Z,70.18
2022-09-12T05:33:57.605Z,70.01
2022-09-12T05:36:25.314Z,69.96
2022-09-12T05:38:52.033Z,69.96
2022-09-12T05:41:24.683Z,69.90
2022-09-12T05:43:52.716Z,70.05
2022-09-12T05:46:20.118Z,69.75
2022-09-12T05:48:47.573Z,69.17
2022-09-12T05:51:19.125Z,69.35
2022-09-12T05:53:47.045Z,69.04
2022-09-12T05:56:15.277Z,69.12
2022-09-12T05:58:44.090Z,69.23
2022-09-12T06:01:12.315Z,68.82
2022-09-12T06:03:43.183Z,68.90
2022-09-12T06:06:13.484Z,68.87
2022-09-12T06:08:43.916Z,69.14
2022-09-12T06:11:11.845Z,69.50
2022-09-12T06:13:40.171Z,69.12
2022-09-12T06:16:08.249Z,68.82
2022-09-12T06:18:35.716Z,68.96
2022-09-12T06:21:02.950Z,68.83
2022-09-12T06:23:29.492Z,68.77
2022-09-12T06:25:55.918Z,68.82
2022-09-12T06:28:22.344Z,68.91
2022-09-12T06:30:49.048Z,69.42
2022-09-12T06:33:15.589Z,68.87
2022-09-12T06:35:42.279Z,69.32
2022-09-12T06:38:09.525Z,68.70
2022-09-12T06:40:40.923Z,68.30
2022-09-12T06:43:07.351Z,68.18
2022-09-12T06:45:33.727Z,67.33
2022-09-12T06:48:00.227Z,67.52
2022-09-12T06:50:26.886Z,68.22
2022-09-12T06:52:54.004Z,67.78
2022-09-12T06:55:23.565Z,67.54
2022-09-12T06:57:54.284Z,67.56
2022-09-12T07:00:20.779Z,67.25
2022-09-12T07:02:47.201Z,67.54
2022-09-12T07:05:15.050Z,67.42
2022-09-12T07:07:41.509Z,68.10
2022-09-12T07:10:08.222Z,67.56
2022-09-12T07:12:34.667Z,67.71
2022-09-12T07:15:01.136Z,67.61
2022-09-12T07:17:27.567Z,67.32
2022-09-12T07:19:53.985Z,66.77
2022-09-12T07:22:20.427Z,66.71
2022-09-12T07:24:47.587Z,66.46
2022-09-12T07:27:14.290Z,66.42
2022-09-12T07:29:40.850Z,66.04
2022-09-12T07:32:07.621Z,65.73
2022-09-12T07:34:34.502Z,65.46
2022-09-12T07:37:01.030Z,65.48
2022-09-12T07:39:27.511Z,65.14
2022-09-12T07:41:54.581Z,64.66
2022-09-12T07:44:21.975Z,64.64
2022-09-12T07:46:48.436Z,64.65
2022-09-12T07:49:14.879Z,64.91
2022-09-12T07:51:41.386Z,64.56
2022-09-12T07:54:09.286Z,64.64
2022-09-12T07:56:39.228Z,64.07
2022-09-12T07:59:06.741Z,63.42
2022-09-12T08:01:33.287Z,62.88
2022-09-12T08:04:00.162Z,62.83
2022-09-12T08:06:27.797Z,62.25
2022-09-12T08:08:55.679Z,62.13
2022-09-12T08:11:23.121Z,61.68
2022-09-12T08:13:55.363Z,61.08
2022-09-12T08:16:23.775Z,61.11
2022-09-12T08:18:51.045Z,60.57
2022-09-12T08:21:24.874Z,59.95
2022-09-12T08:23:52.684Z,59.79
2022-09-12T08:26:19.254Z,59.94
2022-09-12T08:28:45.784Z,59.18
2022-09-12T08:31:13.873Z,58.38
2022-09-12T08:33:40.472Z,58.13
2022-09-12T08:36:08.522Z,57.62
2022-09-12T08:38:35.653Z,57.57
2022-09-12T08:41:21.093Z,57.87
2022-09-12T08:43:53.292Z,57.30
2022-09-12T08:46:24.965Z,57.04
2022-09-12T08:48:51.828Z,56.33
2022-09-12T08:51:20.408Z,55.61
2022-09-12T08:53:49.657Z,54.81
2022-09-12T08:56:16.734Z,54.64
2022-09-12T08:58:45.122Z,54.33
2022-09-12T09:01:14.388Z,54.01
2022-09-12T09:03:46.928Z,54.01
2022-09-12T09:06:24.569Z,52.40
2022-09-12T09:08:58.970Z,47.56
2022-09-12T09:11:45.852Z,39.89
2022-09-12T09:14:41.145Z,31.87
2022-09-12T09:17:20.231Z,28.58
2022-09-12T09:19:51.324Z,26.59
2022-09-12T09:22:28.944Z,25.68
2022-09-12T09:24:59.612Z,24.30
2022-09-12T09:27:40.798Z,21.77
2022-09-12T09:30:34.483Z,21.29
2022-09-12T09:33:01.928Z,20.73
2022-09-12T09:35:28.335Z,21.07
2022-09-12T09:38:05.938Z,20.75
2022-09-12T09:40:32.436Z,21.50
2022-09-12T09:43:14.048Z,20.29
2022-09-12T09:45:44.484Z,18.00
2022-09-12T09:48:16.694Z,17.71
2022-09-12T09:50:47.020Z,18.79
2022-09-12T09:53:22.326Z,19.38
2022-09-12T09:55:48.905Z,19.81
2022-09-12T09:58:35.726Z,19.30
2022-09-12T10:01:12.017Z,18.43
2022-09-12T10:03:39.250Z,18.44
2022-09-12T10:06:22.741Z,16.39
2022-09-12T10:08:50.318Z,17.17
2022-09-12T10:11:16.749Z,17.12
2022-09-12T10:13:56.814Z,17.52
2022-09-12T10:16:25.280Z,15.46
2022-09-12T10:18:52.448Z,15.46
2022-09-12T10:21:22.431Z,15.40
2022-09-12T10:23:53.083Z,14.29
2022-09-12T10:26:20.136Z,14.78
2022-09-12T10:28:46.705Z,14.69
2022-09-12T10:31:32.083Z,14.30
2022-09-12T10:33:59.778Z,13.38
2022-09-12T10:36:26.685Z,12.09
2022-09-12T10:38:55.496Z,11.61
2022-09-12T10:41:22.055Z,13.02
2022-09-12T10:43:48.881Z,13.03
2022-09-12T10:46:18.526Z,13.80
2022-09-12T10:48:46.209Z,13.24
2022-09-12T10:51:26.779Z,13.35
2022-09-12T10:53:59.352Z,13.26
2022-09-12T10:56:30.875Z,13.15
2022-09-12T10:59:19.949Z,12.26
2022-09-12T11:01:54.162Z,10.94
2022-09-12T11:04:20.623Z,10.44
2022-09-12T11:07:01.653Z,10.87
2022-09-12T11:09:37.153Z,9.89
2022-09-12T11:12:18.862Z,8.80
2022-09-12T11:15:00.570Z,8.23
2022-09-12T11:17:51.964Z,8.35
2022-09-12T11:20:25.279Z,9.76
2022-09-12T11:22:51.703Z,9.35
2022-09-12T11:25:35.594Z,10.06
2022-09-12T11:28:34.484Z,9.95
2022-09-12T11:31:17.165Z,10.19
2022-09-12T11:33:56.470Z,10.42
2022-09-12T11:36:28.475Z,9.24
2022-09-12T11:39:01.819Z,10.06
2022-09-12T11:41:51.503Z,10.07
2022-09-12T11:44:24.405Z,10.07
2022-09-12T11:46:52.285Z,10.94
2022-09-12T11:49:37.766Z,11.49
2022-09-12T11:52:07.114Z,11.43
2022-09-12T11:54:38.197Z,11.30
2022-09-12T11:57:31.019Z,10.87
2022-09-12T12:00:02.123Z,11.82
2022-09-12T12:02:37.921Z,10.84
2022-09-12T12:05:22.410Z,10.24
2022-09-12T12:07:53.805Z,10.52
2022-09-12T12:10:32.135Z,10.76
2022-09-12T12:13:00.297Z,10.86
2022-09-12T12:15:27.374Z,11.36
2022-09-12T12:18:08.379Z,11.88
2022-09-12T12:20:35.123Z,13.25
2022-09-12T12:23:01.711Z,16.17
2022-09-12T12:25:51.581Z,18.47
2022-09-12T12:28:36.751Z,19.79
2022-09-12T12:31:03.479Z,21.19
2022-09-12T12:33:29.959Z,21.89
2022-09-12T12:35:59.503Z,24.61
2022-09-12T12:38:35.927Z,25.48
2022-09-12T12:41:17.771Z,26.56
2022-09-12T12:43:48.252Z,25.96
2022-09-12T12:46:15.763Z,26.47
2022-09-12T12:48:53.779Z,28.95
2022-09-12T12:51:23.527Z,28.26
2022-09-12T12:53:51.463Z,28.38
2022-09-12T12:56:27.148Z,29.42
2022-09-12T12:59:01.221Z,30.07
2022-09-12T13:01:28.532Z,28.11
2022-09-12T13:04:10.941Z,32.10
2022-09-12T13:06:37.654Z,28.69
2022-09-12T13:09:21.332Z,29.06
2022-09-12T13:11:55.714Z,27.98
2022-09-12T13:14:41.641Z,28.43
2022-09-12T13:17:14.295Z,29.80
2022-09-12T13:19:41.351Z,31.44
2022-09-12T13:22:09.238Z,29.67
2022-09-12T13:24:47.514Z,28.78
2022-09-12T13:27:22.111Z,29.47
2022-09-12T13:29:48.720Z,28.22
2022-09-12T13:32:16.449Z,28.03
2022-09-12T13:35:05.879Z,27.88
2022-09-12T13:37:41.428Z,29.76
2022-09-12T13:40:26.805Z,30.89
2022-09-12T13:43:02.498Z,31.44
2022-09-12T13:45:28.920Z,28.92
2022-09-12T13:48:02.183Z,29.04
2022-09-12T13:50:45.518Z,32.01
2022-09-12T13:53:17.009Z,29.80
2022-09-12T13:55:47.265Z,29.98
2022-09-12T13:58:19.838Z,30.67
2022-09-12T14:00:46.506Z,32.15
2022-09-12T14:03:45.606Z,31.40
2022-09-12T14:06:12.732Z,29.38
2022-09-12T14:08:41.188Z,29.93
2022-09-12T14:11:08.630Z,31.65
2022-09-12T14:13:35.750Z,29.93
2022-09-12T14:16:02.964Z,29.12
2022-09-12T14:18:34.252Z,29.22
2022-09-12T14:21:08.985Z,29.71
2022-09-12T14:23:37.620Z,31.66
2022-09-12T14:26:05.680Z,29.37
2022-09-12T14:28:32.611Z,31.09
2022-09-12T14:31:00.328Z,30.71
2022-09-12T14:33:26.941Z,30.45
2022-09-12T14:36:08.662Z,27.87
2022-09-12T14:38:36.903Z,31.57
2022-09-12T14:41:07.982Z,30.83
2022-09-12T14:43:35.940Z,31.82
2022-09-12T14:46:04.765Z,29.17
2022-09-12T14:48:33.207Z,30.55
2022-09-12T14:50:59.810Z,30.54
2022-09-12T14:53:32.469Z,29.87
2022-09-12T14:56:04.989Z,31.54
2022-09-12T14:58:31.558Z,29.33
2022-09-12T15:01:01.794Z,28.57
2022-09-12T15:03:29.987Z,32.38
2022-09-12T15:05:57.281Z,29.73
2022-09-12T15:08:24.473Z,30.48
2022-09-12T15:10:51.102Z,30.33
2022-09-12T15:13:19.342Z,32.35
2022-09-12T15:15:47.224Z,29.34
2022-09-12T15:18:14.825Z,29.20
2022-09-12T15:20:42.906Z,30.13
2022-09-12T15:23:33.075Z,28.85
2022-09-12T15:25:59.600Z,29.74
2022-09-12T15:28:26.881Z,29.84
2022-09-12T15:30:55.196Z,31.94
2022-09-12T15:33:23.946Z,31.69
2022-09-12T15:35:51.084Z,29.08
2022-09-12T15:38:20.997Z,29.36
2022-09-12T15:40:52.750Z,30.45
2022-09-12T15:43:19.889Z,30.35
2022-09-12T15:45:47.000Z,32.76
2022-09-12T15:48:13.943Z,31.92
2022-09-12T15:50:41.574Z,31.21
2022-09-12T15:53:12.584Z,32.36
2022-09-12T15:55:39.075Z,32.30
2022-09-12T15:58:07.314Z,31.92
2022-09-12T16:00:34.054Z,32.66
2022-09-12T16:03:01.014Z,31.43
2022-09-12T16:05:27.976Z,30.60
2022-09-12T16:07:55.675Z,30.80
2022-09-12T16:10:24.005Z,29.97
2022-09-12T16:12:51.391Z,30.45
2022-09-12T16:15:22.297Z,32.27
2022-09-12T16:17:49.016Z,31.52
2022-09-12T16:20:16.061Z,30.23
2022-09-12T16:22:42.769Z,29.53
2022-09-12T16:25:09.521Z,30.06
2022-09-12T16:27:36.836Z,31.04
2022-09-12T16:30:04.305Z,32.27
2022-09-12T16:32:31.174Z,30.96
2022-09-12T16:34:57.857Z,31.59
2022-09-12T16:37:24.421Z,32.34
2022-09-12T16:39:52.835Z,31.48
2022-09-12T16:42:19.486Z,31.78
2022-09-12T16:44:47.025Z,32.50
2022-09-12T16:47:14.331Z,32.28
2022-09-12T16:49:40.854Z,32.80
2022-09-12T16:52:08.162Z,32.90
2022-09-12T16:54:34.769Z,33.90
2022-09-12T16:57:01.197Z,33.55
2022-09-12T16:59:27.727Z,33.63
2022-09-12T17:01:54.285Z,34.08
2022-09-12T17:04:23.606Z,33.94
2022-09-12T17:06:50.454Z,33.74
2022-09-12T17:09:18.610Z,34.25
2022-09-12T17:12:10.692Z,34.79
2022-09-12T17:14:37.292Z,34.81
2022-09-12T17:17:03.765Z,35.93
2022-09-12T17:19:30.484Z,35.55
2022-09-12T17:21:57.781Z,35.24
2022-09-12T17:24:24.893Z,35.08
2022-09-12T17:26:51.774Z,34.86
2022-09-12T17:29:18.272Z,34.91
2022-09-12T17:31:45.378Z,35.04
2022-09-12T17:34:14.409Z,35.50
2022-09-12T17:36:44.145Z,35.86
2022-09-12T17:39:11.506Z,35.46
2022-09-12T17:41:38.461Z,35.71
2022-09-12T17:44:07.400Z,36.10
2022-09-12T17:46:38.227Z,37.07
2022-09-12T17:49:06.153Z,36.67
2022-09-12T17:51:32.779Z,36.71
2022-09-12T17:54:01.040Z,37.13
2022-09-12T17:56:29.701Z,37.20
2022-09-12T17:58:57.046Z,37.51
2022-09-12T18:01:42.317Z,37.44
2022-09-12T18:04:08.843Z,37.71
2022-09-12T18:06:35.624Z,37.55
2022-09-12T18:09:03.421Z,37.65
2022-09-12T18:11:30.179Z,38.14
2022-09-12T18:13:58.244Z,38.43
2022-09-12T18:16:25.454Z,38.65
2022-09-12T18:18:52.246Z,38.81
2022-09-12T18:21:19.770Z,38.46
2022-09-12T18:23:47.027Z,38.50
2022-09-12T18:26:14.030Z,38.36
2022-09-12T18:28:41.539Z,39.12
2022-09-12T18:31:15.153Z,39.11
2022-09-12T18:33:42.168Z,39.31
2022-09-12T18:36:10.242Z,40.03
2022-09-12T18:38:37.408Z,39.77
2022-09-12T18:41:05.501Z,39.98
2022-09-12T18:43:32.311Z,39.90
2022-09-12T18:46:08.901Z,39.58
2022-09-12T18:48:35.812Z,39.74
2022-09-12T18:51:19.120Z,40.07
2022-09-12T18:53:53.492Z,40.36
2022-09-12T18:56:20.570Z,40.11
2022-09-12T18:58:50.492Z,40.22
2022-09-12T19:01:18.338Z,40.56
2022-09-12T19:03:45.658Z,40.27
2022-09-12T19:06:13.698Z,41.68
2022-09-12T19:08:41.340Z,41.23
2022-09-12T19:11:08.777Z,40.77
2022-09-12T19:13:36.382Z,40.66
2022-09-12T19:16:04.170Z,41.01
2022-09-12T19:18:31.454Z,41.07
2022-09-12T19:20:58.001Z,41.23
2022-09-12T19:23:24.655Z,41.06
2022-09-12T19:25:57.862Z,41.13
2022-09-12T19:28:24.540Z,40.67
2022-09-12T19:30:51.136Z,41.22
2022-09-12T19:33:17.878Z,41.15
2022-09-12T19:35:46.245Z,41.04
2022-09-12T19:38:13.334Z,41.52
2022-09-12T19:40:39.838Z,41.73
2022-09-12T19:43:07.101Z,41.39
2022-09-12T19:45:33.562Z,42.00
2022-09-12T19:48:00.135Z,42.82
2022-09-12T19:50:27.377Z,42.93
2022-09-12T19:52:53.949Z,42.89
2022-09-12T19:55:22.164Z,43.66
2022-09-12T19:57:48.671Z,43.11
2022-09-12T20:00:15.303Z,43.17
2022-09-12T20:02:41.877Z,43.85
2022-09-12T20:05:08.396Z,43.90
2022-09-12T20:07:34.859Z,44.21
2022-09-12T20:10:01.575Z,44.18
2022-09-12T20:12:28.019Z,44.09
2022-09-12T20:14:54.523Z,44.54
2022-09-12T20:17:21.079Z,44.31
2022-09-12T20:19:47.689Z,44.64
2022-09-12T20:22:14.183Z,45.20
2022-09-12T20:24:40.650Z,45.38
2022-09-12T20:27:07.136Z,45.47
2022-09-12T20:29:33.628Z,45.38
2022-09-12T20:32:00.228Z,45.58
2022-09-12T20:34:26.704Z,45.53
2022-09-12T20:36:53.471Z,45.11
2022-09-12T20:39:21.667Z,45.73
2022-09-12T20:41:48.547Z,45.89
2022-09-12T20:44:15.144Z,45.72
2022-09-12T20:46:42.066Z,46.09
2022-09-12T20:49:08.947Z,46.14
2022-09-12T20:51:36.373Z,46.32
2022-09-12T20:54:04.527Z,46.49
2022-09-12T20:56:32.445Z,46.64
2022-09-12T20:58:59.329Z,46.46
2022-09-12T21:01:26.790Z,46.70
2022-09-12T21:03:53.621Z,46.87
2022-09-12T21:06:20.409Z,47.08
2022-09-12T21:08:47.737Z,46.92
2022-09-12T21:11:15.123Z,47.49
2022-09-12T21:13:41.647Z,47.50
2022-09-12T21:16:10.468Z,47.66
2022-09-12T21:18:37.413Z,47.14
2022-09-12T21:21:04.906Z,47.18
2022-09-12T21:23:31.980Z,47.49
2022-09-12T21:26:02.312Z,47.16
2022-09-12T21:28:29.148Z,47.39
2022-09-12T21:30:55.957Z,47.98
2022-09-12T21:33:23.028Z,48.38
2022-09-12T21:35:50.092Z,48.44
2022-09-12T21:38:17.574Z,48.48
2022-09-12T21:40:44.214Z,48.39
2022-09-12T21:43:12.976Z,48.36
2022-09-12T21:45:40.065Z,48.06
2022-09-12T21:48:06.672Z,47.95
2022-09-12T21:50:33.296Z,48.21
2022-09-12T21:52:59.946Z,47.88
2022-09-12T21:55:27.242Z,48.08
2022-09-12T21:57:56.987Z,48.74
2022-09-12T22:00:23.984Z,48.51
2022-09-12T22:02:50.552Z,48.61
2022-09-12T22:05:17.497Z,48.65
2022-09-12T22:07:44.148Z,48.95
2022-09-12T22:10:10.645Z,48.43
2022-09-12T22:12:37.039Z,48.53
2022-09-12T22:15:23.016Z,48.87
2022-09-12T22:17:50.283Z,49.52
2022-09-12T22:20:16.688Z,50.07
2022-09-12T22:23:01.926Z,49.94
2022-09-12T22:25:28.604Z,50.11
2022-09-12T22:27:55.162Z,49.95
2022-09-12T22:30:22.579Z,50.38
2022-09-12T22:32:49.914Z,50.52
2022-09-12T22:35:17.241Z,51.19
2022-09-12T22:37:44.125Z,51.36
2022-09-12T22:40:11.685Z,51.50
2022-09-12T22:42:38.154Z,51.24
2022-09-12T22:45:05.509Z,52.04
2022-09-12T22:47:32.023Z,52.19
2022-09-12T22:49:58.482Z,52.16
2022-09-12T22:52:24.952Z,52.81
2022-09-12T22:54:51.394Z,52.56
2022-09-12T22:57:18.038Z,52.73
2022-09-12T22:59:44.560Z,53.01
2022-09-12T23:02:11.002Z,53.03
2022-09-12T23:04:37.654Z,53.39
2022-09-12T23:07:04.406Z,53.47
2022-09-12T23:09:35.099Z,53.65
2022-09-12T23:12:02.086Z,53.23
2022-09-12T23:14:28.688Z,53.76
2022-09-12T23:16:55.237Z,53.42
2022-09-12T23:19:21.667Z,53.89
2022-09-12T23:21:48.295Z,53.64
2022-09-12T23:24:14.835Z,54.60
2022-09-12T23:26:41.272Z,54.31
2022-09-12T23:29:08.809Z,54.15
2022-09-12T23:31:35.437Z,54.83
2022-09-12T23:34:03.503Z,54.54
2022-09-12T23:36:30.337Z,55.25
2022-09-12T23:38:57.448Z,55.22
2022-09-12T23:41:24.041Z,55.30
2022-09-12T23:43:50.726Z,55.28
2022-09-12T23:46:17.765Z,55.65
2022-09-12T23:48:44.539Z,55.76
2022-09-12T23:51:11.506Z,55.73
2022-09-12T23:53:38.311Z,55.80
2022-09-12T23:56:05.414Z,56.27
2022-09-12T23:58:31.840Z,56.27
